Share

Maljamar, NM

Derrick Ranch (KNMLOVIN5) Elev 4072 ft | 32.93 °N, 103.52 °W | Change Station

Current weather conditions updated 36 seconds ago

Clear
Clear
55.8 °F
Feels Like 55.8 °F
N
5.0
Wind Variable Wind from SE
Gusts 23.0 mph
Sunrise 6:20 AM
Sunset 7:28 PM
Moon Waning Gibbous

Today is forecast to be nearly the same temperature as yesterday. Afternoon showers and thunderstorms.

Pressure 30.05 in
Visibility 10.0 miles
Clouds Clear
Dew Point 48 °F
Humidity 76%
Rainfall 0.00 in
Snow Depth Not available.
UV 0 out of 16
Pollen 8.40 out of 12
Air Quality Not available.
Flu Activity Local Activity
METAR KATS 191155Z AUTO 16008KT 10SM CLR 13/12 A3005 RMK AO2

More Conditions Fewer Conditions

Pressure 30.05 in
Visibility 10.0 miles
Clouds Clear
Dew Point 48 °F
Humidity 76%
Rainfall 0.00 in
Snow Depth Not available.
UV 0 out of 16
Pollen 8.40 out of 12
Air Quality Not available.
Flu Activity Local Activity
METAR KATS 191155Z AUTO 16008KT 10SM CLR 13/12 A3005 RMK AO2

More Conditions Fewer Conditions

10-Day Weather Forecast

Almanac

Astronomy

Apr. 19, 2014 Rise Set
Actual Time 6:20 AM MDT 7:28 PM MDT
Civil Twilight 5:54 AM MDT 7:53 PM MDT
Nautical Twilight 5:24 AM MDT 8:24 PM MDT
Astronomical Twilight 4:53 AM MDT 8:55 PM MDT
Moon No Moon Rise 9:48 AM MDT
Length of Visible Light 13h 58m
Length of Day
13h 07m
Tomorrow will be 1m 53s longer.
Waning Gibbous, 80% of the Moon is Illuminated
Today
Waning Gibbous
Apr 22
Last Quarter
Apr 29
New
May 6
First Quarter
May 14
Full

Today's Extremes

State Highs State Lows

Community

  • Bleeding Hearts
    Bleeding Hearts
  • Sunset Silhouettes
    Sunset Silhouettes
  • FL sunset Perico Isle
    FL sunset Perico Isle
  • Cloudy spring view
    Cloudy spring view
  • Old barn
    Old barn

WunderPhotos

Upload Photos

1,702,687 photos uploaded!

Nearby

Snow Depth

Station Depth Elevation
Wesner Springs 0 in 11120 ft
Elk Cabin 0 in 8210 ft
Santa Fe 28 in 11445 ft
McKnight Cabin 2 in 9240 ft
Gallegos Peak 1 in 9800 ft

Coastal Water Temperatures

Place Temperature
No Stations Reporting

Earthquake Activity

City Distance Mag. Time & Date
No recent earthquake activity has been reported nearby.
Minimum magnitude displayed is 2.5.

Nearby Weather Stations

Station Location Temp. Dew Point Humidity Wind Precip. Elev Updated Type
Derrick Ranch, Lovington, NM 55.8 °F 48 °F 76% SE  at  5.0 mph 0.00 in / hr 4072 ft 6:03 AM MDT Normal
Sixth Grade Academy, Lovington, NM 56.5 °F 47 °F 70% South  at  0.0 mph - / hr 3934 ft 4:12 AM MDT Normal

Show More Stations Show Fewer Stations

What do you think?

We're not finished. Please let us know what you like, what you don't like, and what you are still missing.